createdAt,value
2022-12-08T00:01:13.273Z,100108.78
2022-12-08T00:03:40.341Z,100101.50
2022-12-08T00:06:32.035Z,100104.16
2022-12-08T00:09:17.185Z,100097.69
2022-12-08T00:11:43.703Z,100098.09
2022-12-08T00:14:10.198Z,100097.50
2022-12-08T00:16:36.749Z,100089.78
2022-12-08T00:19:03.339Z,100088.88
2022-12-08T00:21:29.873Z,100095.81
2022-12-08T00:23:57.477Z,100090.00
2022-12-08T00:26:25.434Z,100085.06
2022-12-08T00:28:51.952Z,100082.81
2022-12-08T00:31:18.542Z,100084.22
2022-12-08T00:33:45.152Z,100085.25
2022-12-08T00:36:13.947Z,100077.16
2022-12-08T00:38:41.728Z,100069.16
2022-12-08T00:41:16.964Z,100084.97
2022-12-08T00:43:43.723Z,100060.16
2022-12-08T00:46:10.857Z,100062.94
2022-12-08T00:48:37.767Z,100080.75
2022-12-08T00:51:04.290Z,100070.72
2022-12-08T00:53:31.816Z,100062.63
2022-12-08T00:55:58.389Z,100071.16
2022-12-08T00:58:24.831Z,100065.47
2022-12-08T01:00:51.484Z,100065.22
2022-12-08T01:03:18.072Z,100061.22
2022-12-08T01:05:44.691Z,100067.97
2022-12-08T01:08:11.279Z,100068.38
2022-12-08T01:10:39.354Z,100069.09
2022-12-08T01:13:06.343Z,100060.81
2022-12-08T01:15:32.818Z,100061.50
2022-12-08T01:17:59.334Z,100060.84
2022-12-08T01:20:25.836Z,100056.06
2022-12-08T01:22:52.304Z,100066.28
2022-12-08T01:25:19.008Z,100063.00
2022-12-08T01:27:45.508Z,100062.16
2022-12-08T01:30:13.224Z,100060.97
2022-12-08T01:32:39.738Z,100057.56
2022-12-08T01:35:06.478Z,100053.94
2022-12-08T01:37:33.009Z,100014.22
2022-12-08T01:39:59.464Z,100040.97
2022-12-08T01:42:26.139Z,100044.41
2022-12-08T01:45:02.467Z,100054.38
2022-12-08T01:47:42.631Z,100048.03
2022-12-08T01:50:12.648Z,100043.56
2022-12-08T01:52:42.913Z,100043.94
2022-12-08T01:55:32.958Z,100039.06
2022-12-08T01:58:08.233Z,100042.22
2022-12-08T02:00:34.727Z,100032.84
2022-12-08T02:03:06.435Z,100033.59
2022-12-08T02:05:38.798Z,100022.03
2022-12-08T02:08:08.284Z,100035.88
2022-12-08T02:10:37.384Z,100023.81
2022-12-08T02:13:06.893Z,100021.97
2022-12-08T02:15:52.247Z,100020.72
2022-12-08T02:18:37.199Z,100021.75
2022-12-08T02:21:10.827Z,100011.81
2022-12-08T02:23:50.456Z,100019.25
2022-12-08T02:26:41.882Z,100012.59
2022-12-08T02:29:45.861Z,100010.34
2022-12-08T02:32:57.158Z,100011.19
2022-12-08T02:35:44.780Z,100001.28
2022-12-08T02:38:23.124Z,100001.72
2022-12-08T02:41:23.473Z,99991.19
2022-12-08T02:44:16.097Z,100008.78
2022-12-08T02:46:50.005Z,100003.22
2022-12-08T02:49:16.730Z,99997.63
2022-12-08T02:51:43.388Z,100002.13
2022-12-08T02:54:09.984Z,99999.06
2022-12-08T02:57:04.837Z,99992.94
2022-12-08T02:59:52.112Z,99997.94
2022-12-08T03:02:34.939Z,99998.31
2022-12-08T03:05:19.146Z,100004.72
2022-12-08T03:08:02.937Z,99997.19
2022-12-08T03:10:37.074Z,99983.59
2022-12-08T03:13:12.974Z,99974.69
2022-12-08T03:15:41.462Z,99979.09
2022-12-08T03:18:12.205Z,99979.91
2022-12-08T03:20:40.590Z,99976.19
2022-12-08T03:23:10.647Z,99971.22
2022-12-08T03:25:43.053Z,99974.84
2022-12-08T03:28:09.862Z,99958.66
2022-12-08T03:30:40.932Z,99959.63
2022-12-08T03:33:15.742Z,99961.38
2022-12-08T03:35:43.150Z,99950.69
2022-12-08T03:38:13.532Z,99960.34
2022-12-08T03:40:40.856Z,99962.72
2022-12-08T03:43:07.396Z,99955.47
2022-12-08T03:45:34.728Z,99949.84
2022-12-08T03:48:01.278Z,99952.31
2022-12-08T03:50:28.169Z,99955.00
2022-12-08T03:52:54.711Z,99947.91
2022-12-08T03:55:21.472Z,99950.28
2022-12-08T03:57:48.014Z,99942.16
2022-12-08T04:00:16.339Z,99945.84
2022-12-08T04:02:43.114Z,99935.63
2022-12-08T04:05:09.669Z,99936.53
2022-12-08T04:07:36.362Z,99941.09
2022-12-08T04:10:03.849Z,99933.41
2022-12-08T04:12:31.283Z,99931.56
2022-12-08T04:14:57.786Z,99923.72
2022-12-08T04:17:24.338Z,99937.81
2022-12-08T04:19:50.835Z,99933.44
2022-12-08T04:22:17.341Z,99937.88
2022-12-08T04:24:43.839Z,99924.75
2022-12-08T04:27:10.335Z,99921.69
2022-12-08T04:29:36.863Z,99927.47
2022-12-08T04:32:03.594Z,99927.22
2022-12-08T04:34:30.136Z,99929.00
2022-12-08T04:36:56.637Z,99923.63
2022-12-08T04:39:23.163Z,99919.09
2022-12-08T04:41:49.671Z,99915.41
2022-12-08T04:44:16.159Z,99911.56
2022-12-08T04:46:43.773Z,99915.25
2022-12-08T04:49:10.771Z,99916.53
2022-12-08T04:51:37.265Z,99913.63
2022-12-08T04:54:03.838Z,99911.84
2022-12-08T04:56:30.347Z,99913.00
2022-12-08T04:58:56.840Z,99905.72
2022-12-08T05:01:23.486Z,99906.84
2022-12-08T05:03:50.036Z,99901.19
2022-12-08T05:06:16.642Z,99897.72
2022-12-08T05:08:43.360Z,99904.81
2022-12-08T05:11:11.419Z,99900.03
2022-12-08T05:13:37.988Z,99903.97
2022-12-08T05:16:07.904Z,99904.91
2022-12-08T05:18:35.208Z,99901.50
2022-12-08T05:21:01.848Z,99897.56
2022-12-08T05:23:28.417Z,99891.41
2022-12-08T05:25:54.893Z,99896.72
2022-12-08T05:28:42.622Z,99889.97
2022-12-08T05:31:08.139Z,99885.06
2022-12-08T05:33:34.652Z,99886.59
2022-12-08T05:36:01.174Z,99880.66
2022-12-08T05:38:27.731Z,99876.16
2022-12-08T05:40:54.238Z,99881.38
2022-12-08T05:43:21.147Z,99886.22
2022-12-08T05:45:47.715Z,99876.47
2022-12-08T05:48:14.319Z,99881.34
2022-12-08T05:50:46.135Z,99876.50
2022-12-08T05:53:12.559Z,99878.88
2022-12-08T05:55:39.385Z,99873.69
2022-12-08T05:58:08.173Z,99881.38
2022-12-08T06:00:34.893Z,99875.91
2022-12-08T06:03:01.604Z,99874.91
2022-12-08T06:05:28.269Z,99878.97
2022-12-08T06:07:54.890Z,99873.19
2022-12-08T06:10:21.448Z,99880.63
2022-12-08T06:12:48.007Z,99878.97
2022-12-08T06:15:14.539Z,99878.31
2022-12-08T06:17:41.004Z,99875.50
2022-12-08T06:20:08.092Z,99886.19
2022-12-08T06:22:35.062Z,99880.41
2022-12-08T06:25:04.033Z,99878.34
2022-12-08T06:27:33.513Z,99884.34
2022-12-08T06:30:00.028Z,99881.56
2022-12-08T06:32:27.699Z,99882.91
2022-12-08T06:34:54.399Z,99875.69
2022-12-08T06:37:20.882Z,99885.75
2022-12-08T06:39:47.392Z,99876.09
2022-12-08T06:42:32.605Z,99880.53
2022-12-08T06:44:59.928Z,99875.97
2022-12-08T06:47:26.628Z,99868.59
2022-12-08T06:49:53.262Z,99875.69
2022-12-08T06:52:19.764Z,99872.03
2022-12-08T06:54:46.267Z,99870.84
2022-12-08T06:57:12.786Z,99867.75
2022-12-08T06:59:39.809Z,99869.41
2022-12-08T07:02:06.917Z,99869.69
2022-12-08T07:04:33.430Z,99875.19
2022-12-08T07:06:59.934Z,99878.44
2022-12-08T07:09:26.436Z,99879.38
2022-12-08T07:11:52.924Z,99880.75
2022-12-08T07:14:23.545Z,99867.97
2022-12-08T07:16:51.566Z,99872.53
2022-12-08T07:19:20.796Z,99873.84
2022-12-08T07:21:47.586Z,99880.28
2022-12-08T07:24:14.106Z,99879.34
2022-12-08T07:26:41.159Z,99876.81
2022-12-08T07:29:08.468Z,99876.94
2022-12-08T07:31:34.932Z,99884.44
2022-12-08T07:34:01.426Z,99873.72
2022-12-08T07:36:28.095Z,99866.31
2022-12-08T07:38:54.567Z,99864.91
2022-12-08T07:41:23.909Z,99865.22
2022-12-08T07:43:51.023Z,99856.00
2022-12-08T07:46:20.598Z,99868.31
2022-12-08T07:48:47.444Z,99864.16
2022-12-08T07:51:15.479Z,99865.88
2022-12-08T07:53:48.396Z,99866.66
2022-12-08T07:56:18.609Z,99866.97
2022-12-08T07:58:47.478Z,99872.47
2022-12-08T08:01:32.401Z,99867.91
2022-12-08T08:04:01.776Z,99853.25
2022-12-08T08:06:28.644Z,99871.28
2022-12-08T08:08:55.276Z,99855.88
2022-12-08T08:11:22.567Z,99864.56
2022-12-08T08:13:52.675Z,99865.69
2022-12-08T08:16:19.753Z,99863.00
2022-12-08T08:18:49.028Z,99848.13
2022-12-08T08:21:43.929Z,99861.03
2022-12-08T08:24:02.791Z,99871.00
2022-12-08T08:26:29.285Z,99871.34
2022-12-08T08:28:55.851Z,99863.56
2022-12-08T08:31:26.934Z,99869.69
2022-12-08T08:33:53.946Z,99872.31
2022-12-08T08:36:22.009Z,99872.53
2022-12-08T08:38:48.637Z,99872.41
2022-12-08T08:41:15.156Z,99873.91
2022-12-08T08:43:41.657Z,99848.28
2022-12-08T08:46:08.972Z,99871.31
2022-12-08T08:48:36.191Z,99866.25
2022-12-08T08:51:11.145Z,99869.84
2022-12-08T08:53:37.876Z,99879.06
2022-12-08T08:56:12.196Z,99869.03
2022-12-08T08:58:38.977Z,99870.63
2022-12-08T09:01:05.764Z,99859.72
2022-12-08T09:03:32.619Z,99877.72
2022-12-08T09:05:59.537Z,99867.59
2022-12-08T09:08:26.772Z,99869.97
2022-12-08T09:10:53.364Z,99852.44
2022-12-08T09:13:19.925Z,99863.56
2022-12-08T09:15:46.451Z,99871.50
2022-12-08T09:18:13.123Z,99851.94
2022-12-08T09:20:39.611Z,99860.63
2022-12-08T09:23:06.111Z,99870.63
2022-12-08T09:25:32.719Z,99859.50
2022-12-08T09:27:59.319Z,99869.69
2022-12-08T09:30:25.843Z,99871.53
2022-12-08T09:32:52.384Z,99870.41
2022-12-08T09:35:18.922Z,99869.97
2022-12-08T09:37:45.460Z,99872.72
2022-12-08T09:40:17.004Z,99872.31
2022-12-08T09:42:50.783Z,99867.56
2022-12-08T09:45:18.546Z,99853.22
2022-12-08T09:48:03.815Z,99859.59
2022-12-08T09:50:43.579Z,99855.31
2022-12-08T09:53:17.005Z,99832.84
2022-12-08T09:55:53.663Z,99843.38
2022-12-08T09:58:35.405Z,99847.81
2022-12-08T10:01:02.291Z,99845.88
2022-12-08T10:03:30.848Z,99836.28
2022-12-08T10:06:15.834Z,99839.38
2022-12-08T10:09:12.578Z,99834.88
2022-12-08T10:11:42.690Z,99831.13
2022-12-08T10:14:28.565Z,99832.09
2022-12-08T10:17:00.589Z,99825.19
2022-12-08T10:19:28.700Z,99828.47
2022-12-08T10:21:56.856Z,99822.41
2022-12-08T10:24:29.156Z,99824.25
2022-12-08T10:26:56.106Z,99826.16
2022-12-08T10:29:22.694Z,99821.50
2022-12-08T10:31:49.377Z,99814.47
2022-12-08T10:34:20.233Z,99817.78
2022-12-08T10:36:52.621Z,99818.41
2022-12-08T10:39:45.436Z,99819.97
2022-12-08T10:42:14.667Z,99817.50
2022-12-08T10:44:59.410Z,99812.41
2022-12-08T10:47:27.985Z,99809.84
2022-12-08T10:50:30.039Z,99811.94
2022-12-08T10:53:08.475Z,99809.78
2022-12-08T10:55:42.373Z,99803.06
2022-12-08T10:58:35.641Z,99792.91
2022-12-08T11:01:06.744Z,99801.75
2022-12-08T11:03:38.728Z,99801.03
2022-12-08T11:06:26.491Z,99794.19
2022-12-08T11:08:55.832Z,99797.91
2022-12-08T11:11:36.597Z,99787.94
2022-12-08T11:14:07.891Z,99782.03
2022-12-08T11:16:35.669Z,99786.13
2022-12-08T11:19:07.952Z,99777.59
2022-12-08T11:21:37.161Z,99785.81
2022-12-08T11:24:25.243Z,99786.84
2022-12-08T11:27:00.287Z,99758.13
2022-12-08T11:29:28.789Z,99770.84
2022-12-08T11:32:10.875Z,99777.22
2022-12-08T11:34:47.809Z,99766.50
2022-12-08T11:37:34.684Z,99771.88
2022-12-08T11:40:07.063Z,99762.75
2022-12-08T11:42:44.339Z,99766.47
2022-12-08T11:45:21.732Z,99762.88
2022-12-08T11:48:01.823Z,99763.88
2022-12-08T11:51:06.773Z,99758.94
2022-12-08T11:53:43.243Z,99755.03
2022-12-08T11:56:26.418Z,99753.53
2022-12-08T11:58:59.131Z,99743.88
2022-12-08T12:01:26.544Z,99747.41
2022-12-08T12:04:05.189Z,99739.66
2022-12-08T12:06:55.080Z,99734.72
2022-12-08T12:09:44.786Z,99741.38
2022-12-08T12:12:49.799Z,99741.44
2022-12-08T12:15:16.261Z,99743.22
2022-12-08T12:17:47.722Z,99727.44
2022-12-08T12:20:23.811Z,99729.81
2022-12-08T12:22:57.720Z,99723.00
2022-12-08T12:25:26.063Z,99733.47
2022-12-08T12:27:57.592Z,99732.16
2022-12-08T12:30:27.180Z,99725.03
2022-12-08T12:32:56.409Z,99715.75
2022-12-08T12:35:35.981Z,99725.28
2022-12-08T12:38:26.768Z,99720.41
2022-12-08T12:41:01.708Z,99723.06
2022-12-08T12:43:32.455Z,99719.78
2022-12-08T12:46:24.003Z,99722.66
2022-12-08T12:48:51.872Z,99716.03
2022-12-08T12:51:39.819Z,99717.91
2022-12-08T12:54:21.789Z,99715.91
2022-12-08T12:56:56.164Z,99709.63
2022-12-08T12:59:35.557Z,99712.66
2022-12-08T13:02:02.734Z,99706.34
2022-12-08T13:04:37.700Z,99703.50
2022-12-08T13:07:04.896Z,99710.13
2022-12-08T13:09:39.640Z,99710.47
2022-12-08T13:12:12.553Z,99699.84
2022-12-08T13:14:51.015Z,99705.28
2022-12-08T13:17:27.324Z,99705.13
2022-12-08T13:20:01.229Z,99698.69
2022-12-08T13:22:49.499Z,99700.75
2022-12-08T13:25:40.772Z,99702.44
2022-12-08T13:28:16.360Z,99695.13
2022-12-08T13:30:52.542Z,99693.41
2022-12-08T13:33:45.744Z,99693.84
2022-12-08T13:36:38.019Z,99692.41
2022-12-08T13:39:05.874Z,99685.91
2022-12-08T13:41:43.432Z,99686.84
2022-12-08T13:59:28.328Z,99679.25
2022-12-08T14:01:58.431Z,99681.38
2022-12-08T14:07:13.948Z,99670.31
2022-12-08T14:09:41.805Z,99682.03
2022-12-08T14:12:23.465Z,99676.56
2022-12-08T14:15:06.118Z,99678.88
2022-12-08T14:17:33.972Z,99681.69
2022-12-08T14:20:12.646Z,99680.81
2022-12-08T14:22:40.828Z,99687.75
2022-12-08T14:25:13.616Z,99684.00
2022-12-08T14:27:40.430Z,99686.94
2022-12-08T14:30:16.132Z,99693.34
2022-12-08T14:32:46.998Z,99687.63
2022-12-08T14:35:32.521Z,99688.94
2022-12-08T14:38:01.888Z,99694.50
2022-12-08T14:40:36.963Z,99691.84
2022-12-08T14:43:18.330Z,99693.16
2022-12-08T14:45:44.950Z,99691.41
2022-12-08T14:48:25.630Z,99697.25
2022-12-08T14:51:19.212Z,99690.25
2022-12-08T14:53:53.632Z,99695.00
2022-12-08T14:56:24.403Z,99686.97
2022-12-08T14:59:04.176Z,99686.13
2022-12-08T15:01:31.050Z,99683.31
2022-12-08T15:04:06.670Z,99692.38
2022-12-08T15:06:33.363Z,99684.69
2022-12-08T15:09:13.548Z,99688.34
2022-12-08T15:11:40.030Z,99695.44
2022-12-08T15:14:27.696Z,99698.00
2022-12-08T15:16:55.241Z,99687.66
2022-12-08T15:19:24.232Z,99698.09
2022-12-08T15:21:51.132Z,99696.66
2022-12-08T15:24:19.455Z,99701.63
2022-12-08T15:26:48.890Z,99699.94
2022-12-08T15:29:27.848Z,99701.75
2022-12-08T15:31:58.335Z,99700.09
2022-12-08T15:34:25.265Z,99691.16
2022-12-08T15:36:53.721Z,99694.03
2022-12-08T15:39:35.136Z,99699.94
2022-12-08T15:42:03.787Z,99696.06
2022-12-08T15:44:32.574Z,99700.78
2022-12-08T15:47:00.039Z,99692.16
2022-12-08T15:49:26.751Z,99697.19
2022-12-08T15:52:02.008Z,99698.53
2022-12-08T15:54:34.626Z,99694.88
2022-12-08T15:57:19.290Z,99689.63
2022-12-08T15:59:48.058Z,99700.97
2022-12-08T16:02:20.900Z,99697.78
2022-12-08T16:05:33.461Z,99698.69
2022-12-08T16:07:38.044Z,99693.13
2022-12-08T16:10:06.500Z,99696.44
2022-12-08T16:15:55.549Z,99697.53
2022-12-08T16:18:28.393Z,99695.22
2022-12-08T16:23:44.196Z,99696.38
2022-12-08T16:26:35.605Z,99695.13
2022-12-08T16:29:04.707Z,99696.16
2022-12-08T16:31:31.755Z,99691.56
2022-12-08T16:33:58.476Z,99705.56
2022-12-08T16:36:25.061Z,99698.38
2022-12-08T16:38:51.528Z,99706.31
2022-12-08T16:41:36.581Z,99692.38
2022-12-08T16:44:05.107Z,99697.31
2022-12-08T16:46:32.072Z,99699.06
2022-12-08T16:48:59.070Z,99702.59
2022-12-08T16:51:27.411Z,99698.97
2022-12-08T16:53:56.738Z,99696.81
2022-12-08T16:56:28.795Z,99697.78
2022-12-08T16:58:58.707Z,99690.53
2022-12-08T17:01:25.374Z,99693.38
2022-12-08T17:04:22.620Z,99678.88
2022-12-08T17:06:38.631Z,99690.34
2022-12-08T17:09:05.515Z,99685.59
2022-12-08T17:11:37.524Z,99681.13
2022-12-08T17:14:09.095Z,99682.44
2022-12-08T17:16:35.804Z,99679.81
2022-12-08T17:19:02.549Z,99679.38
2022-12-08T17:21:29.257Z,99688.13
2022-12-08T17:23:56.115Z,99677.59
2022-12-08T17:26:22.668Z,99688.91
2022-12-08T17:29:00.474Z,99683.28
2022-12-08T17:31:30.376Z,99685.06
2022-12-08T17:34:02.244Z,99672.66
2022-12-08T17:36:29.064Z,99679.47
2022-12-08T17:38:56.960Z,99675.16
2022-12-08T17:41:23.469Z,99680.03
2022-12-08T17:43:50.035Z,99674.72
2022-12-08T17:46:18.671Z,99680.44
2022-12-08T17:48:45.334Z,99667.84
2022-12-08T17:51:11.942Z,99669.06
2022-12-08T17:53:40.530Z,99669.72
2022-12-08T17:56:14.283Z,99663.56
2022-12-08T17:58:40.771Z,99668.41
2022-12-08T18:01:08.863Z,99670.22
2022-12-08T18:03:36.211Z,99662.19
2022-12-08T18:06:08.154Z,99673.25
2022-12-08T18:08:34.902Z,99671.88
2022-12-08T18:11:02.077Z,99678.59
2022-12-08T18:13:29.385Z,99677.59
2022-12-08T18:15:55.957Z,99677.13
2022-12-08T18:18:25.266Z,99674.75
2022-12-08T18:20:51.951Z,99677.78
2022-12-08T18:23:18.763Z,99682.06
2022-12-08T18:25:45.709Z,99670.72
2022-12-08T18:28:12.343Z,99663.78
2022-12-08T18:30:40.511Z,99671.56
2022-12-08T18:33:07.447Z,99673.88
2022-12-08T18:35:37.523Z,99674.47
2022-12-08T18:38:04.021Z,99662.44
2022-12-08T18:40:33.768Z,99667.84
2022-12-08T18:43:00.285Z,99664.28
2022-12-08T18:45:26.800Z,99663.97
2022-12-08T18:47:53.458Z,99658.53
2022-12-08T18:50:20.106Z,99658.41
2022-12-08T18:52:47.110Z,99661.38
2022-12-08T18:55:14.684Z,99662.56
2022-12-08T18:57:43.141Z,99669.91
2022-12-08T19:00:15.962Z,99663.66
2022-12-08T19:02:43.115Z,99664.31
2022-12-08T19:05:11.889Z,99666.41
2022-12-08T19:07:38.772Z,99671.56
2022-12-08T19:10:06.828Z,99671.25
2022-12-08T19:12:33.713Z,99677.59
2022-12-08T19:15:00.254Z,99679.25
2022-12-08T19:17:26.855Z,99678.34
2022-12-08T19:19:53.435Z,99680.00
2022-12-08T19:22:21.055Z,99673.88
2022-12-08T19:24:47.579Z,99667.63
2022-12-08T19:27:14.071Z,99681.66
2022-12-08T19:29:40.665Z,99684.84
2022-12-08T19:32:07.334Z,99687.47
2022-12-08T19:34:33.889Z,99685.38
2022-12-08T19:37:00.450Z,99686.94
2022-12-08T19:39:45.493Z,99687.16
2022-12-08T19:42:32.871Z,99690.69
2022-12-08T19:45:04.198Z,99686.50
2022-12-08T19:47:30.848Z,99682.66
2022-12-08T19:50:17.454Z,99683.50
2022-12-08T19:52:44.678Z,99689.53
2022-12-08T19:55:12.149Z,99689.00
2022-12-08T19:57:38.816Z,99683.50
2022-12-08T20:00:07.155Z,99679.38
2022-12-08T20:02:34.016Z,99671.16
2022-12-08T20:05:00.612Z,99678.91
2022-12-08T20:07:27.117Z,99680.44
2022-12-08T20:09:53.762Z,99675.66
2022-12-08T20:12:26.167Z,99672.78
2022-12-08T20:14:53.031Z,99670.94
2022-12-08T20:17:19.539Z,99670.34
2022-12-08T20:19:46.142Z,99665.34
2022-12-08T20:22:12.610Z,99667.72
2022-12-08T20:24:39.152Z,99670.75
2022-12-08T20:27:05.688Z,99674.84
2022-12-08T20:29:32.404Z,99669.75
2022-12-08T20:31:59.074Z,99674.38
2022-12-08T20:34:25.689Z,99668.16
2022-12-08T20:36:52.272Z,99667.22
2022-12-08T20:39:19.024Z,99675.75
2022-12-08T20:41:46.665Z,99669.19
2022-12-08T20:44:13.300Z,99666.13
2022-12-08T20:46:41.851Z,99672.31
2022-12-08T20:49:11.654Z,99664.63
2022-12-08T20:51:41.903Z,99671.59
2022-12-08T20:54:09.694Z,99669.59
2022-12-08T20:56:36.817Z,99668.28
2022-12-08T20:59:03.595Z,99675.84
2022-12-08T21:01:30.342Z,99677.22
2022-12-08T21:03:57.230Z,99676.03
2022-12-08T21:06:26.764Z,99672.81
2022-12-08T21:08:54.030Z,99676.25
2022-12-08T21:11:20.821Z,99672.84
2022-12-08T21:13:47.890Z,99670.28
2022-12-08T21:16:15.675Z,99672.53
2022-12-08T21:18:42.871Z,99667.22
2022-12-08T21:21:12.240Z,99665.31
2022-12-08T21:23:38.984Z,99671.69
2022-12-08T21:26:14.660Z,99673.22
2022-12-08T21:28:41.948Z,99671.03
2022-12-08T21:31:10.924Z,99671.91
2022-12-08T21:33:37.703Z,99673.22
2022-12-08T21:36:11.381Z,99669.72
2022-12-08T21:38:39.548Z,99673.94
2022-12-08T21:41:09.172Z,99686.06
2022-12-08T21:43:36.400Z,99684.41
2022-12-08T21:46:03.962Z,99684.22
2022-12-08T21:48:30.835Z,99681.00
2022-12-08T21:51:04.474Z,99678.94
2022-12-08T21:53:33.609Z,99684.91
2022-12-08T21:56:00.171Z,99678.59
2022-12-08T21:58:26.839Z,99674.06
2022-12-08T22:00:54.417Z,99682.59
2022-12-08T22:03:21.525Z,99677.03
2022-12-08T22:05:48.687Z,99679.44
2022-12-08T22:08:15.389Z,99675.84
2022-12-08T22:10:48.252Z,99688.44
2022-12-08T22:13:14.877Z,99682.34
2022-12-08T22:15:45.906Z,99683.06
2022-12-08T22:18:12.875Z,99691.03
2022-12-08T22:20:43.911Z,99692.50
2022-12-08T22:23:11.440Z,99687.34
2022-12-08T22:25:38.017Z,99681.59
2022-12-08T22:28:04.718Z,99684.47
2022-12-08T22:30:37.239Z,99680.41
2022-12-08T22:33:05.495Z,99687.28
2022-12-08T22:35:32.168Z,99689.78
2022-12-08T22:37:59.133Z,99689.22
2022-12-08T22:40:25.566Z,99681.09
2022-12-08T22:42:52.237Z,99686.38
2022-12-08T22:45:18.901Z,99685.41
2022-12-08T22:47:45.514Z,99681.91
2022-12-08T22:50:12.414Z,99678.16
2022-12-08T22:52:42.095Z,99666.22
2022-12-08T22:55:08.793Z,99670.03
2022-12-08T22:57:35.329Z,99665.78
2022-12-08T23:00:02.057Z,99667.97
2022-12-08T23:02:28.884Z,99668.94
2022-12-08T23:04:57.247Z,99668.41
2022-12-08T23:07:24.108Z,99658.41
2022-12-08T23:09:50.635Z,99665.50
2022-12-08T23:12:17.175Z,99666.84
2022-12-08T23:14:43.798Z,99665.09
2022-12-08T23:17:10.413Z,99666.56
2022-12-08T23:19:38.381Z,99661.03
2022-12-08T23:22:05.375Z,99662.91
2022-12-08T23:24:31.949Z,99661.94
2022-12-08T23:27:01.702Z,99668.19
2022-12-08T23:29:31.558Z,99659.53
2022-12-08T23:31:58.528Z,99660.63
2022-12-08T23:34:28.778Z,99663.78
2022-12-08T23:36:58.696Z,99642.31
2022-12-08T23:39:25.293Z,99660.63
2022-12-08T23:41:51.785Z,99663.13
2022-12-08T23:44:18.345Z,99659.28
2022-12-08T23:46:44.919Z,99657.22
2022-12-08T23:49:11.521Z,99650.63
2022-12-08T23:51:38.157Z,99646.44
2022-12-08T23:54:07.952Z,99643.13
2022-12-08T23:56:34.520Z,99634.28
2022-12-08T23:59:01.309Z,99633.59
